sensor_id;sensor_type;location;lat;lon;timestamp;temperature;humidity
30300;DHT22;17110;52.602;12.998;2023-08-07T00:02:07;14.70;99.90
30300;DHT22;17110;52.602;12.998;2023-08-07T00:04:36;14.60;99.90
30300;DHT22;17110;52.602;12.998;2023-08-07T00:07:03;14.60;99.90
30300;DHT22;17110;52.602;12.998;2023-08-07T00:09:28;14.60;99.90
30300;DHT22;17110;52.602;12.998;2023-08-07T00:11:54;14.50;99.90
30300;DHT22;17110;52.602;12.998;2023-08-07T00:14:20;14.50;99.90
30300;DHT22;17110;52.602;12.998;2023-08-07T00:16:45;14.50;99.90
30300;DHT22;17110;52.602;12.998;2023-08-07T00:19:13;14.50;99.90
30300;DHT22;17110;52.602;12.998;2023-08-07T00:21:39;14.50;99.90
30300;DHT22;17110;52.602;12.998;2023-08-07T00:24:06;14.50;99.90
30300;DHT22;17110;52.602;12.998;2023-08-07T00:26:31;14.50;99.90
30300;DHT22;17110;52.602;12.998;2023-08-07T00:28:57;14.40;99.90
30300;DHT22;17110;52.602;12.998;2023-08-07T00:31:23;14.40;99.90
30300;DHT22;17110;52.602;12.998;2023-08-07T00:33:48;14.40;99.90
30300;DHT22;17110;52.602;12.998;2023-08-07T00:36:14;14.40;99.90
30300;DHT22;17110;52.602;12.998;2023-08-07T00:38:40;14.40;99.90
30300;DHT22;17110;52.602;12.998;2023-08-07T00:41:07;14.40;99.90
30300;DHT22;17110;52.602;12.998;2023-08-07T00:43:32;14.40;99.90
30300;DHT22;17110;52.602;12.998;2023-08-07T00:45:58;14.40;99.90
30300;DHT22;17110;52.602;12.998;2023-08-07T00:48:23;14.50;99.90
30300;DHT22;17110;52.602;12.998;2023-08-07T00:50:51;14.50;99.90
30300;DHT22;17110;52.602;12.998;2023-08-07T00:53:17;14.50;99.90
30300;DHT22;17110;52.602;12.998;2023-08-07T00:55:43;14.50;99.90
30300;DHT22;17110;52.602;12.998;2023-08-07T00:58:10;14.60;99.90
30300;DHT22;17110;52.602;12.998;2023-08-07T01:00:36;14.60;99.90
30300;DHT22;17110;52.602;12.998;2023-08-07T01:03:05;14.60;99.90
30300;DHT22;17110;52.602;12.998;2023-08-07T01:05:31;14.60;99.90
30300;DHT22;17110;52.602;12.998;2023-08-07T01:07:57;14.50;99.90
30300;DHT22;17110;52.602;12.998;2023-08-07T01:10:28;14.50;99.90
30300;DHT22;17110;52.602;12.998;2023-08-07T01:13:04;14.50;99.90
30300;DHT22;17110;52.602;12.998;2023-08-07T01:15:33;14.50;99.90
30300;DHT22;17110;52.602;12.998;2023-08-07T01:18:00;14.50;99.90
30300;DHT22;17110;52.602;12.998;2023-08-07T01:20:30;14.50;99.90
30300;DHT22;17110;52.602;12.998;2023-08-07T01:22:57;14.50;99.90
30300;DHT22;17110;52.602;12.998;2023-08-07T01:25:23;14.50;99.90
30300;DHT22;17110;52.602;12.998;2023-08-07T01:27:55;14.50;99.90
30300;DHT22;17110;52.602;12.998;2023-08-07T01:30:26;14.60;99.90
30300;DHT22;17110;52.602;12.998;2023-08-07T01:32:59;14.60;99.90
30300;DHT22;17110;52.602;12.998;2023-08-07T01:35:29;14.60;99.90
30300;DHT22;17110;52.602;12.998;2023-08-07T01:37:59;14.50;99.90
30300;DHT22;17110;52.602;12.998;2023-08-07T01:40:25;14.50;99.90
30300;DHT22;17110;52.602;12.998;2023-08-07T01:42:52;14.50;99.90
30300;DHT22;17110;52.602;12.998;2023-08-07T01:45:23;14.50;99.90
30300;DHT22;17110;52.602;12.998;2023-08-07T01:47:49;14.50;99.90
30300;DHT22;17110;52.602;12.998;2023-08-07T01:50:14;14.50;99.90
30300;DHT22;17110;52.602;12.998;2023-08-07T01:52:40;14.40;99.90
30300;DHT22;17110;52.602;12.998;2023-08-07T01:55:08;14.40;99.90
30300;DHT22;17110;52.602;12.998;2023-08-07T01:57:33;14.40;99.90
30300;DHT22;17110;52.602;12.998;2023-08-07T01:59:59;14.40;99.90
30300;DHT22;17110;52.602;12.998;2023-08-07T02:02:25;14.50;99.90
30300;DHT22;17110;52.602;12.998;2023-08-07T02:04:51;14.50;99.90
30300;DHT22;17110;52.602;12.998;2023-08-07T02:07:16;14.50;99.90
30300;DHT22;17110;52.602;12.998;2023-08-07T02:09:42;14.50;99.90
30300;DHT22;17110;52.602;12.998;2023-08-07T02:12:09;14.50;99.90
30300;DHT22;17110;52.602;12.998;2023-08-07T02:14:35;14.60;99.90
30300;DHT22;17110;52.602;12.998;2023-08-07T02:17:00;14.60;99.90
30300;DHT22;17110;52.602;12.998;2023-08-07T02:19:26;14.60;99.90
30300;DHT22;17110;52.602;12.998;2023-08-07T02:21:52;14.60;99.90
30300;DHT22;17110;52.602;12.998;2023-08-07T02:24:17;14.60;99.90
30300;DHT22;17110;52.602;12.998;2023-08-07T02:26:46;14.60;99.90
30300;DHT22;17110;52.602;12.998;2023-08-07T02:29:13;14.60;99.90
30300;DHT22;17110;52.602;12.998;2023-08-07T02:31:38;14.60;99.90
30300;DHT22;17110;52.602;12.998;2023-08-07T02:34:04;14.60;99.90
30300;DHT22;17110;52.602;12.998;2023-08-07T02:36:30;14.60;99.90
30300;DHT22;17110;52.602;12.998;2023-08-07T02:38:55;14.60;99.90
30300;DHT22;17110;52.602;12.998;2023-08-07T02:41:21;14.70;99.90
30300;DHT22;17110;52.602;12.998;2023-08-07T02:43:47;14.60;99.90
30300;DHT22;17110;52.602;12.998;2023-08-07T02:46:17;14.70;99.90
30300;DHT22;17110;52.602;12.998;2023-08-07T02:48:43;14.70;99.90
30300;DHT22;17110;52.602;12.998;2023-08-07T02:51:08;14.70;99.90
30300;DHT22;17110;52.602;12.998;2023-08-07T02:53:34;14.80;99.90
30300;DHT22;17110;52.602;12.998;2023-08-07T02:56:00;14.80;99.90
30300;DHT22;17110;52.602;12.998;2023-08-07T02:58:25;14.70;99.90
30300;DHT22;17110;52.602;12.998;2023-08-07T03:00:51;14.70;99.90
30300;DHT22;17110;52.602;12.998;2023-08-07T03:03:18;14.70;99.90
30300;DHT22;17110;52.602;12.998;2023-08-07T03:05:48;14.70;99.90
30300;DHT22;17110;52.602;12.998;2023-08-07T03:08:14;14.80;99.90
30300;DHT22;17110;52.602;12.998;2023-08-07T03:10:39;14.70;99.90
30300;DHT22;17110;52.602;12.998;2023-08-07T03:13:06;14.70;99.90
30300;DHT22;17110;52.602;12.998;2023-08-07T03:15:31;14.70;99.90
30300;DHT22;17110;52.602;12.998;2023-08-07T03:17:57;14.70;99.90
30300;DHT22;17110;52.602;12.998;2023-08-07T03:20:24;14.70;99.90
30300;DHT22;17110;52.602;12.998;2023-08-07T03:22:50;14.70;99.90
30300;DHT22;17110;52.602;12.998;2023-08-07T03:25:15;14.70;99.90
30300;DHT22;17110;52.602;12.998;2023-08-07T03:27:44;14.70;99.90
30300;DHT22;17110;52.602;12.998;2023-08-07T03:30:11;14.70;99.90
30300;DHT22;17110;52.602;12.998;2023-08-07T03:32:36;14.70;99.90
30300;DHT22;17110;52.602;12.998;2023-08-07T03:35:02;14.70;99.90
30300;DHT22;17110;52.602;12.998;2023-08-07T03:37:29;14.70;99.90
30300;DHT22;17110;52.602;12.998;2023-08-07T03:39:55;14.70;99.90
30300;DHT22;17110;52.602;12.998;2023-08-07T03:42:21;14.60;99.90
30300;DHT22;17110;52.602;12.998;2023-08-07T03:44:46;14.60;99.90
30300;DHT22;17110;52.602;12.998;2023-08-07T03:47:12;14.60;99.90
30300;DHT22;17110;52.602;12.998;2023-08-07T03:49:38;14.60;99.90
30300;DHT22;17110;52.602;12.998;2023-08-07T03:52:04;14.60;99.90
30300;DHT22;17110;52.602;12.998;2023-08-07T03:54:31;14.60;99.90
30300;DHT22;17110;52.602;12.998;2023-08-07T03:56:57;14.60;99.90
30300;DHT22;17110;52.602;12.998;2023-08-07T03:59:23;14.50;99.90
30300;DHT22;17110;52.602;12.998;2023-08-07T04:01:49;14.60;99.90
30300;DHT22;17110;52.602;12.998;2023-08-07T04:04:14;14.50;99.90
30300;DHT22;17110;52.602;12.998;2023-08-07T04:06:40;14.60;99.90
30300;DHT22;17110;52.602;12.998;2023-08-07T04:09:06;14.60;99.90
30300;DHT22;17110;52.602;12.998;2023-08-07T04:11:33;14.60;99.90
30300;DHT22;17110;52.602;12.998;2023-08-07T04:13:58;14.60;99.90
30300;DHT22;17110;52.602;12.998;2023-08-07T04:16:24;14.60;99.90
30300;DHT22;17110;52.602;12.998;2023-08-07T04:18:51;14.60;99.90
30300;DHT22;17110;52.602;12.998;2023-08-07T04:21:16;14.60;99.90
30300;DHT22;17110;52.602;12.998;2023-08-07T04:23:42;14.60;99.90
30300;DHT22;17110;52.602;12.998;2023-08-07T04:26:08;14.60;99.90
30300;DHT22;17110;52.602;12.998;2023-08-07T04:28:35;14.60;99.90
30300;DHT22;17110;52.602;12.998;2023-08-07T04:31:00;14.60;99.90
30300;DHT22;17110;52.602;12.998;2023-08-07T04:33:26;14.70;99.90
30300;DHT22;17110;52.602;12.998;2023-08-07T04:35:52;14.80;99.90
30300;DHT22;17110;52.602;12.998;2023-08-07T04:38:17;14.90;99.90
30300;DHT22;17110;52.602;12.998;2023-08-07T04:40:44;14.80;99.90
30300;DHT22;17110;52.602;12.998;2023-08-07T04:43:10;14.90;99.90
30300;DHT22;17110;52.602;12.998;2023-08-07T04:45:37;14.90;99.90
30300;DHT22;17110;52.602;12.998;2023-08-07T04:48:02;14.90;99.90
30300;DHT22;17110;52.602;12.998;2023-08-07T04:50:29;15.00;99.90
30300;DHT22;17110;52.602;12.998;2023-08-07T04:52:55;15.10;99.90
30300;DHT22;17110;52.602;12.998;2023-08-07T04:55:20;15.20;99.90
30300;DHT22;17110;52.602;12.998;2023-08-07T04:57:46;15.30;99.90
30300;DHT22;17110;52.602;12.998;2023-08-07T05:00:12;15.40;99.90
30300;DHT22;17110;52.602;12.998;2023-08-07T05:02:42;15.50;99.90
30300;DHT22;17110;52.602;12.998;2023-08-07T05:05:08;15.40;99.90
30300;DHT22;17110;52.602;12.998;2023-08-07T05:07:34;15.50;99.90
30300;DHT22;17110;52.602;12.998;2023-08-07T05:10:00;15.80;99.90
30300;DHT22;17110;52.602;12.998;2023-08-07T05:12:26;16.30;99.90
30300;DHT22;17110;52.602;12.998;2023-08-07T05:14:52;16.60;99.90
30300;DHT22;17110;52.602;12.998;2023-08-07T05:17:18;17.00;99.90
30300;DHT22;17110;52.602;12.998;2023-08-07T05:19:44;17.40;99.90
30300;DHT22;17110;52.602;12.998;2023-08-07T05:22:16;17.70;99.90
30300;DHT22;17110;52.602;12.998;2023-08-07T05:24:42;18.00;99.90
30300;DHT22;17110;52.602;12.998;2023-08-07T05:27:08;18.30;99.90
30300;DHT22;17110;52.602;12.998;2023-08-07T05:29:37;18.70;99.90
30300;DHT22;17110;52.602;12.998;2023-08-07T05:32:04;18.50;99.90
30300;DHT22;17110;52.602;12.998;2023-08-07T05:34:29;18.80;99.90
30300;DHT22;17110;52.602;12.998;2023-08-07T05:36:56;18.90;99.90
30300;DHT22;17110;52.602;12.998;2023-08-07T05:39:22;18.90;99.90
30300;DHT22;17110;52.602;12.998;2023-08-07T05:41:50;19.00;99.90
30300;DHT22;17110;52.602;12.998;2023-08-07T05:44:16;18.90;99.90
30300;DHT22;17110;52.602;12.998;2023-08-07T05:46:42;19.00;99.90
30300;DHT22;17110;52.602;12.998;2023-08-07T05:49:07;19.30;99.90
30300;DHT22;17110;52.602;12.998;2023-08-07T05:51:33;19.20;99.90
30300;DHT22;17110;52.602;12.998;2023-08-07T05:54:00;18.50;99.90
30300;DHT22;17110;52.602;12.998;2023-08-07T05:56:25;18.00;99.90
30300;DHT22;17110;52.602;12.998;2023-08-07T05:58:51;17.80;99.90
30300;DHT22;17110;52.602;12.998;2023-08-07T06:01:17;17.80;99.90
30300;DHT22;17110;52.602;12.998;2023-08-07T06:03:42;17.90;99.90
30300;DHT22;17110;52.602;12.998;2023-08-07T06:06:08;18.20;99.90
30300;DHT22;17110;52.602;12.998;2023-08-07T06:08:33;18.30;99.90
30300;DHT22;17110;52.602;12.998;2023-08-07T06:11:00;18.20;99.90
30300;DHT22;17110;52.602;12.998;2023-08-07T06:13:26;18.00;99.90
30300;DHT22;17110;52.602;12.998;2023-08-07T06:15:52;17.70;99.90
30300;DHT22;17110;52.602;12.998;2023-08-07T06:18:17;17.60;99.90
30300;DHT22;17110;52.602;12.998;2023-08-07T06:20:43;17.90;99.90
30300;DHT22;17110;52.602;12.998;2023-08-07T06:23:09;18.10;99.90
30300;DHT22;17110;52.602;12.998;2023-08-07T06:25:34;17.70;99.90
30300;DHT22;17110;52.602;12.998;2023-08-07T06:28:01;17.50;99.90
30300;DHT22;17110;52.602;12.998;2023-08-07T06:30:27;17.60;99.90
30300;DHT22;17110;52.602;12.998;2023-08-07T06:32:52;17.50;99.90
30300;DHT22;17110;52.602;12.998;2023-08-07T06:35:18;17.50;99.90
30300;DHT22;17110;52.602;12.998;2023-08-07T06:37:44;17.50;99.90
30300;DHT22;17110;52.602;12.998;2023-08-07T06:40:10;17.50;99.90
30300;DHT22;17110;52.602;12.998;2023-08-07T06:42:36;17.40;99.90
30300;DHT22;17110;52.602;12.998;2023-08-07T06:45:03;17.40;99.90
30300;DHT22;17110;52.602;12.998;2023-08-07T06:47:29;17.30;99.90
30300;DHT22;17110;52.602;12.998;2023-08-07T06:49:55;17.50;99.90
30300;DHT22;17110;52.602;12.998;2023-08-07T06:52:21;17.60;99.90
30300;DHT22;17110;52.602;12.998;2023-08-07T06:54:47;17.70;99.90
30300;DHT22;17110;52.602;12.998;2023-08-07T06:57:12;18.00;99.90
30300;DHT22;17110;52.602;12.998;2023-08-07T06:59:38;18.40;99.90
30300;DHT22;17110;52.602;12.998;2023-08-07T07:02:05;18.80;99.90
30300;DHT22;17110;52.602;12.998;2023-08-07T07:04:31;19.40;99.90
30300;DHT22;17110;52.602;12.998;2023-08-07T07:06:57;19.70;99.90
30300;DHT22;17110;52.602;12.998;2023-08-07T07:09:26;19.60;99.90
30300;DHT22;17110;52.602;12.998;2023-08-07T07:11:51;19.90;99.90
30300;DHT22;17110;52.602;12.998;2023-08-07T07:14:17;19.80;99.90
30300;DHT22;17110;52.602;12.998;2023-08-07T07:16:43;19.20;99.90
30300;DHT22;17110;52.602;12.998;2023-08-07T07:19:10;19.40;99.90
30300;DHT22;17110;52.602;12.998;2023-08-07T07:21:35;19.60;99.90
30300;DHT22;17110;52.602;12.998;2023-08-07T07:24:02;19.20;99.90
30300;DHT22;17110;52.602;12.998;2023-08-07T07:26:27;19.00;99.90
30300;DHT22;17110;52.602;12.998;2023-08-07T07:28:53;18.80;99.90
30300;DHT22;17110;52.602;12.998;2023-08-07T07:31:19;18.40;99.90
30300;DHT22;17110;52.602;12.998;2023-08-07T07:33:44;18.30;99.90
30300;DHT22;17110;52.602;12.998;2023-08-07T07:36:15;18.30;99.90
30300;DHT22;17110;52.602;12.998;2023-08-07T07:38:41;18.30;99.90
30300;DHT22;17110;52.602;12.998;2023-08-07T07:41:06;18.20;99.90
30300;DHT22;17110;52.602;12.998;2023-08-07T07:43:32;18.30;99.90
30300;DHT22;17110;52.602;12.998;2023-08-07T07:45:57;18.50;99.90
30300;DHT22;17110;52.602;12.998;2023-08-07T07:48:23;18.40;99.90
30300;DHT22;17110;52.602;12.998;2023-08-07T07:50:49;18.30;99.90
30300;DHT22;17110;52.602;12.998;2023-08-07T07:53:16;18.20;99.90
30300;DHT22;17110;52.602;12.998;2023-08-07T07:55:46;18.00;99.90
30300;DHT22;17110;52.602;12.998;2023-08-07T07:58:12;18.20;99.90
30300;DHT22;17110;52.602;12.998;2023-08-07T08:00:38;18.50;99.90
30300;DHT22;17110;52.602;12.998;2023-08-07T08:03:03;18.80;99.90
30300;DHT22;17110;52.602;12.998;2023-08-07T08:05:29;18.60;99.90
30300;DHT22;17110;52.602;12.998;2023-08-07T08:07:54;18.50;99.90
30300;DHT22;17110;52.602;12.998;2023-08-07T08:10:21;18.50;99.90
30300;DHT22;17110;52.602;12.998;2023-08-07T08:12:47;18.50;99.90
30300;DHT22;17110;52.602;12.998;2023-08-07T08:15:13;18.50;99.90
30300;DHT22;17110;52.602;12.998;2023-08-07T08:17:38;18.50;99.90
30300;DHT22;17110;52.602;12.998;2023-08-07T08:20:05;18.70;99.90
30300;DHT22;17110;52.602;12.998;2023-08-07T08:22:31;18.70;99.90
30300;DHT22;17110;52.602;12.998;2023-08-07T08:24:57;19.00;99.90
30300;DHT22;17110;52.602;12.998;2023-08-07T08:27:24;19.30;99.90
30300;DHT22;17110;52.602;12.998;2023-08-07T08:29:49;19.30;99.90
30300;DHT22;17110;52.602;12.998;2023-08-07T08:32:15;19.60;99.90
30300;DHT22;17110;52.602;12.998;2023-08-07T08:34:41;19.70;99.90
30300;DHT22;17110;52.602;12.998;2023-08-07T08:37:06;19.60;99.90
30300;DHT22;17110;52.602;12.998;2023-08-07T08:39:32;19.50;99.90
30300;DHT22;17110;52.602;12.998;2023-08-07T08:42:01;19.40;99.90
30300;DHT22;17110;52.602;12.998;2023-08-07T08:44:29;19.20;99.90
30300;DHT22;17110;52.602;12.998;2023-08-07T08:46:59;19.30;99.90
30300;DHT22;17110;52.602;12.998;2023-08-07T08:49:30;19.40;99.90
30300;DHT22;17110;52.602;12.998;2023-08-07T08:51:58;19.40;99.90
30300;DHT22;17110;52.602;12.998;2023-08-07T08:54:23;19.60;99.90
30300;DHT22;17110;52.602;12.998;2023-08-07T08:56:49;19.90;99.90
30300;DHT22;17110;52.602;12.998;2023-08-07T08:59:15;20.10;99.90
30300;DHT22;17110;52.602;12.998;2023-08-07T09:01:43;20.20;99.90
30300;DHT22;17110;52.602;12.998;2023-08-07T09:04:09;20.30;99.90
30300;DHT22;17110;52.602;12.998;2023-08-07T09:06:35;20.30;99.90
30300;DHT22;17110;52.602;12.998;2023-08-07T09:09:01;20.10;99.90
30300;DHT22;17110;52.602;12.998;2023-08-07T09:11:28;20.20;99.90
30300;DHT22;17110;52.602;12.998;2023-08-07T09:13:55;20.20;99.90
30300;DHT22;17110;52.602;12.998;2023-08-07T09:16:22;19.80;99.90
30300;DHT22;17110;52.602;12.998;2023-08-07T09:18:49;19.50;99.90
30300;DHT22;17110;52.602;12.998;2023-08-07T09:21:15;19.40;99.90
30300;DHT22;17110;52.602;12.998;2023-08-07T09:23:41;19.40;99.90
30300;DHT22;17110;52.602;12.998;2023-08-07T09:26:06;19.50;99.90
30300;DHT22;17110;52.602;12.998;2023-08-07T09:28:32;19.60;99.90
30300;DHT22;17110;52.602;12.998;2023-08-07T09:31:00;19.70;99.90
30300;DHT22;17110;52.602;12.998;2023-08-07T09:33:26;19.70;99.90
30300;DHT22;17110;52.602;12.998;2023-08-07T09:35:57;19.80;99.90
30300;DHT22;17110;52.602;12.998;2023-08-07T09:38:23;19.80;99.90
30300;DHT22;17110;52.602;12.998;2023-08-07T09:40:48;19.70;99.90
30300;DHT22;17110;52.602;12.998;2023-08-07T09:43:20;19.80;99.90
30300;DHT22;17110;52.602;12.998;2023-08-07T09:45:46;20.10;99.90
30300;DHT22;17110;52.602;12.998;2023-08-07T09:48:12;20.00;99.90
30300;DHT22;17110;52.602;12.998;2023-08-07T09:50:39;19.90;99.90
30300;DHT22;17110;52.602;12.998;2023-08-07T09:53:06;19.90;99.90
30300;DHT22;17110;52.602;12.998;2023-08-07T09:55:32;19.90;99.90
30300;DHT22;17110;52.602;12.998;2023-08-07T09:58:00;19.80;99.90
30300;DHT22;17110;52.602;12.998;2023-08-07T10:00:26;19.70;99.90
30300;DHT22;17110;52.602;12.998;2023-08-07T10:02:53;19.80;99.90
30300;DHT22;17110;52.602;12.998;2023-08-07T10:05:19;19.80;99.90
30300;DHT22;17110;52.602;12.998;2023-08-07T10:07:46;19.90;99.90
30300;DHT22;17110;52.602;12.998;2023-08-07T10:10:14;19.90;99.90
30300;DHT22;17110;52.602;12.998;2023-08-07T10:12:41;20.00;99.90
30300;DHT22;17110;52.602;12.998;2023-08-07T10:15:08;20.00;99.90
30300;DHT22;17110;52.602;12.998;2023-08-07T10:17:34;20.00;99.90
30300;DHT22;17110;52.602;12.998;2023-08-07T10:19:59;20.00;99.90
30300;DHT22;17110;52.602;12.998;2023-08-07T10:22:27;20.00;99.90
30300;DHT22;17110;52.602;12.998;2023-08-07T10:24:57;19.70;99.90
30300;DHT22;17110;52.602;12.998;2023-08-07T10:27:26;19.50;99.90
30300;DHT22;17110;52.602;12.998;2023-08-07T10:29:53;19.40;99.90
30300;DHT22;17110;52.602;12.998;2023-08-07T10:32:22;19.30;99.90
30300;DHT22;17110;52.602;12.998;2023-08-07T10:34:50;18.90;99.90
30300;DHT22;17110;52.602;12.998;2023-08-07T10:37:32;18.80;99.90
30300;DHT22;17110;52.602;12.998;2023-08-07T10:40:01;18.80;99.90
30300;DHT22;17110;52.602;12.998;2023-08-07T10:42:28;18.90;99.90
30300;DHT22;17110;52.602;12.998;2023-08-07T10:44:54;18.90;99.90
30300;DHT22;17110;52.602;12.998;2023-08-07T10:47:32;18.70;99.90
30300;DHT22;17110;52.602;12.998;2023-08-07T10:49:58;18.10;99.90
30300;DHT22;17110;52.602;12.998;2023-08-07T10:52:25;17.30;99.90
30300;DHT22;17110;52.602;12.998;2023-08-07T10:54:51;17.00;99.90
30300;DHT22;17110;52.602;12.998;2023-08-07T10:57:17;16.70;99.90
30300;DHT22;17110;52.602;12.998;2023-08-07T10:59:49;16.70;99.90
30300;DHT22;17110;52.602;12.998;2023-08-07T11:02:23;16.80;99.90
30300;DHT22;17110;52.602;12.998;2023-08-07T11:04:49;17.10;99.90
30300;DHT22;17110;52.602;12.998;2023-08-07T11:07:23;17.40;99.90
30300;DHT22;17110;52.602;12.998;2023-08-07T11:09:48;17.50;99.90
30300;DHT22;17110;52.602;12.998;2023-08-07T11:12:14;17.70;99.90
30300;DHT22;17110;52.602;12.998;2023-08-07T11:14:41;17.70;99.90
30300;DHT22;17110;52.602;12.998;2023-08-07T11:17:08;18.00;99.90
30300;DHT22;17110;52.602;12.998;2023-08-07T11:19:33;18.40;99.90
30300;DHT22;17110;52.602;12.998;2023-08-07T11:21:59;18.60;99.90
30300;DHT22;17110;52.602;12.998;2023-08-07T11:24:27;18.60;99.90
30300;DHT22;17110;52.602;12.998;2023-08-07T11:26:53;18.60;99.90
30300;DHT22;17110;52.602;12.998;2023-08-07T11:29:18;18.60;99.90
30300;DHT22;17110;52.602;12.998;2023-08-07T11:31:44;18.60;99.90
30300;DHT22;17110;52.602;12.998;2023-08-07T11:34:12;18.90;99.90
30300;DHT22;17110;52.602;12.998;2023-08-07T11:36:41;19.10;99.90
30300;DHT22;17110;52.602;12.998;2023-08-07T11:39:07;19.30;99.90
30300;DHT22;17110;52.602;12.998;2023-08-07T11:41:32;19.50;99.90
30300;DHT22;17110;52.602;12.998;2023-08-07T11:43:58;19.70;99.90
30300;DHT22;17110;52.602;12.998;2023-08-07T11:46:23;19.70;99.90
30300;DHT22;17110;52.602;12.998;2023-08-07T11:48:52;19.90;99.90
30300;DHT22;17110;52.602;12.998;2023-08-07T11:51:20;19.40;99.90
30300;DHT22;17110;52.602;12.998;2023-08-07T11:53:45;19.60;99.90
30300;DHT22;17110;52.602;12.998;2023-08-07T11:56:12;19.70;99.90
30300;DHT22;17110;52.602;12.998;2023-08-07T11:58:39;19.70;99.90
30300;DHT22;17110;52.602;12.998;2023-08-07T12:01:06;19.60;99.90
30300;DHT22;17110;52.602;12.998;2023-08-07T12:03:34;19.60;99.90
30300;DHT22;17110;52.602;12.998;2023-08-07T12:06:02;20.00;99.90
30300;DHT22;17110;52.602;12.998;2023-08-07T12:08:33;20.30;99.90
30300;DHT22;17110;52.602;12.998;2023-08-07T12:11:01;20.50;99.90
30300;DHT22;17110;52.602;12.998;2023-08-07T12:13:27;20.50;99.90
30300;DHT22;17110;52.602;12.998;2023-08-07T12:15:54;20.20;99.90
30300;DHT22;17110;52.602;12.998;2023-08-07T12:18:20;19.50;99.90
30300;DHT22;17110;52.602;12.998;2023-08-07T12:20:46;19.40;99.90
30300;DHT22;17110;52.602;12.998;2023-08-07T12:23:14;19.30;99.90
30300;DHT22;17110;52.602;12.998;2023-08-07T12:25:41;19.40;99.90
30300;DHT22;17110;52.602;12.998;2023-08-07T12:28:07;19.30;99.90
30300;DHT22;17110;52.602;12.998;2023-08-07T12:30:34;19.50;99.90
30300;DHT22;17110;52.602;12.998;2023-08-07T12:33:00;19.30;99.90
30300;DHT22;17110;52.602;12.998;2023-08-07T12:35:25;19.30;99.90
30300;DHT22;17110;52.602;12.998;2023-08-07T12:37:51;19.40;99.90
30300;DHT22;17110;52.602;12.998;2023-08-07T12:40:17;19.30;99.90
30300;DHT22;17110;52.602;12.998;2023-08-07T12:42:43;19.60;99.90
30300;DHT22;17110;52.602;12.998;2023-08-07T12:45:10;19.90;99.90
30300;DHT22;17110;52.602;12.998;2023-08-07T12:47:35;20.30;99.90
30300;DHT22;17110;52.602;12.998;2023-08-07T12:50:01;20.10;99.90
30300;DHT22;17110;52.602;12.998;2023-08-07T12:52:26;20.40;99.90
30300;DHT22;17110;52.602;12.998;2023-08-07T12:54:52;20.20;99.90
30300;DHT22;17110;52.602;12.998;2023-08-07T12:57:18;20.60;99.90
30300;DHT22;17110;52.602;12.998;2023-08-07T12:59:45;20.80;99.90
30300;DHT22;17110;52.602;12.998;2023-08-07T13:02:10;20.80;99.90
30300;DHT22;17110;52.602;12.998;2023-08-07T13:04:36;20.70;99.90
30300;DHT22;17110;52.602;12.998;2023-08-07T13:07:02;20.70;99.90
30300;DHT22;17110;52.602;12.998;2023-08-07T13:09:27;21.00;99.90
30300;DHT22;17110;52.602;12.998;2023-08-07T13:11:53;21.30;99.90
30300;DHT22;17110;52.602;12.998;2023-08-07T13:14:18;21.20;99.90
30300;DHT22;17110;52.602;12.998;2023-08-07T13:16:46;20.90;99.90
30300;DHT22;17110;52.602;12.998;2023-08-07T13:19:11;20.50;99.90
30300;DHT22;17110;52.602;12.998;2023-08-07T13:21:37;20.40;99.90
30300;DHT22;17110;52.602;12.998;2023-08-07T13:24:03;20.00;99.90
30300;DHT22;17110;52.602;12.998;2023-08-07T13:26:28;20.00;99.90
30300;DHT22;17110;52.602;12.998;2023-08-07T13:28:54;19.80;99.90
30300;DHT22;17110;52.602;12.998;2023-08-07T13:31:20;19.80;99.90
30300;DHT22;17110;52.602;12.998;2023-08-07T13:33:47;19.50;99.90
30300;DHT22;17110;52.602;12.998;2023-08-07T13:36:12;19.50;99.90
30300;DHT22;17110;52.602;12.998;2023-08-07T13:38:38;19.50;99.90
30300;DHT22;17110;52.602;12.998;2023-08-07T13:41:03;19.40;99.90
30300;DHT22;17110;52.602;12.998;2023-08-07T13:43:29;19.60;99.90
30300;DHT22;17110;52.602;12.998;2023-08-07T13:45:55;19.60;99.90
30300;DHT22;17110;52.602;12.998;2023-08-07T13:48:20;19.70;99.90
30300;DHT22;17110;52.602;12.998;2023-08-07T13:50:47;19.80;99.90
30300;DHT22;17110;52.602;12.998;2023-08-07T13:53:13;19.80;99.90
30300;DHT22;17110;52.602;12.998;2023-08-07T13:55:39;19.80;99.90
30300;DHT22;17110;52.602;12.998;2023-08-07T13:58:04;19.50;99.90
30300;DHT22;17110;52.602;12.998;2023-08-07T14:00:30;19.60;99.90
30300;DHT22;17110;52.602;12.998;2023-08-07T14:02:55;19.80;99.90
30300;DHT22;17110;52.602;12.998;2023-08-07T14:05:21;19.90;99.90
30300;DHT22;17110;52.602;12.998;2023-08-07T14:07:48;20.00;99.90
30300;DHT22;17110;52.602;12.998;2023-08-07T14:10:14;20.20;99.90
30300;DHT22;17110;52.602;12.998;2023-08-07T14:12:39;20.30;99.90
30300;DHT22;17110;52.602;12.998;2023-08-07T14:15:06;20.50;99.90
30300;DHT22;17110;52.602;12.998;2023-08-07T14:17:32;20.90;99.90
30300;DHT22;17110;52.602;12.998;2023-08-07T14:19:57;21.10;99.90
30300;DHT22;17110;52.602;12.998;2023-08-07T14:22:23;20.80;99.90
30300;DHT22;17110;52.602;12.998;2023-08-07T14:24:50;20.70;99.90
30300;DHT22;17110;52.602;12.998;2023-08-07T14:27:15;20.70;99.90
30300;DHT22;17110;52.602;12.998;2023-08-07T14:29:41;20.70;99.90
30300;DHT22;17110;52.602;12.998;2023-08-07T14:32:07;20.40;99.90
30300;DHT22;17110;52.602;12.998;2023-08-07T14:34:32;19.90;99.90
30300;DHT22;17110;52.602;12.998;2023-08-07T14:36:58;19.90;99.90
30300;DHT22;17110;52.602;12.998;2023-08-07T14:39:23;19.70;99.90
30300;DHT22;17110;52.602;12.998;2023-08-07T14:41:50;19.60;99.90
30300;DHT22;17110;52.602;12.998;2023-08-07T14:44:16;19.40;99.90
30300;DHT22;17110;52.602;12.998;2023-08-07T14:46:42;19.40;99.90
30300;DHT22;17110;52.602;12.998;2023-08-07T14:49:07;19.80;99.90
30300;DHT22;17110;52.602;12.998;2023-08-07T14:51:33;20.40;99.90
30300;DHT22;17110;52.602;12.998;2023-08-07T14:53:59;20.50;99.90
30300;DHT22;17110;52.602;12.998;2023-08-07T14:56:27;20.10;99.90
30300;DHT22;17110;52.602;12.998;2023-08-07T14:58:54;20.00;99.90
30300;DHT22;17110;52.602;12.998;2023-08-07T15:01:19;19.70;99.90
30300;DHT22;17110;52.602;12.998;2023-08-07T15:03:45;19.60;99.90
30300;DHT22;17110;52.602;12.998;2023-08-07T15:06:14;19.50;99.90
30300;DHT22;17110;52.602;12.998;2023-08-07T15:08:39;19.70;99.90
30300;DHT22;17110;52.602;12.998;2023-08-07T15:11:05;19.60;99.90